createdAt,value
2023-01-29T00:01:23.551Z,0.20
2023-01-29T00:03:51.317Z,0.20
2023-01-29T00:06:18.302Z,0.20
2023-01-29T00:08:45.301Z,0.20
2023-01-29T00:11:12.646Z,0.20
2023-01-29T00:13:39.613Z,0.20
2023-01-29T00:16:06.753Z,0.20
2023-01-29T00:18:33.728Z,0.20
2023-01-29T00:21:01.059Z,0.20
2023-01-29T00:23:28.270Z,0.20
2023-01-29T00:25:55.275Z,0.20
2023-01-29T00:28:22.317Z,0.20
2023-01-29T00:30:49.302Z,0.20
2023-01-29T00:33:16.291Z,0.20
2023-01-29T00:35:43.340Z,0.10
2023-01-29T00:38:11.729Z,0.10
2023-01-29T00:40:57.487Z,0.10
2023-01-29T00:43:43.234Z,0.10
2023-01-29T00:46:10.320Z,0.10
2023-01-29T00:48:37.318Z,0.10
2023-01-29T00:51:04.412Z,0.10
2023-01-29T00:53:31.490Z,0.00
2023-01-29T00:55:58.449Z,0.10
2023-01-29T00:58:28.194Z,0.00
2023-01-29T01:00:55.916Z,0.10
2023-01-29T01:03:22.939Z,0.10
2023-01-29T01:05:49.950Z,0.10
2023-01-29T01:08:52.457Z,0.00
2023-01-29T01:11:20.315Z,0.10
2023-01-29T01:13:47.308Z,0.00
2023-01-29T01:16:15.394Z,0.10
2023-01-29T01:18:42.613Z,0.10
2023-01-29T01:21:09.630Z,0.00
2023-01-29T01:23:36.728Z,0.00
2023-01-29T01:26:08.029Z,0.00
2023-01-29T01:28:35.462Z,0.00
2023-01-29T01:31:09.631Z,0.00
2023-01-29T01:33:37.757Z,0.00
2023-01-29T01:36:04.942Z,0.00
2023-01-29T01:38:31.961Z,-0.10
2023-01-29T01:40:58.953Z,-0.10
2023-01-29T01:43:26.413Z,-0.10
2023-01-29T01:45:54.010Z,-0.10
2023-01-29T01:48:21.963Z,-0.10
2023-01-29T01:50:58.733Z,0.00
2023-01-29T01:53:26.814Z,-0.10
2023-01-29T01:55:55.778Z,0.00
2023-01-29T01:58:24.255Z,0.00
2023-01-29T02:00:51.363Z,0.00
2023-01-29T02:03:36.980Z,0.00
2023-01-29T02:06:22.771Z,0.00
2023-01-29T02:09:13.151Z,0.00
2023-01-29T02:11:40.388Z,0.00
2023-01-29T02:14:07.430Z,0.00
2023-01-29T02:16:35.411Z,-0.10
2023-01-29T02:19:04.410Z,-0.10
2023-01-29T02:21:40.485Z,-0.10
2023-01-29T02:24:46.106Z,-0.10
2023-01-29T02:27:13.149Z,-0.10
2023-01-29T02:29:40.141Z,-0.10
2023-01-29T02:32:07.128Z,-0.10
2023-01-29T02:34:55.434Z,-0.10
2023-01-29T02:37:25.660Z,-0.10
2023-01-29T02:40:05.469Z,-0.10
2023-01-29T02:42:35.798Z,-0.10
2023-01-29T02:45:19.298Z,-0.10
2023-01-29T02:47:55.768Z,-0.10
2023-01-29T02:50:40.492Z,-0.10
2023-01-29T02:53:07.467Z,0.00
2023-01-29T02:55:52.886Z,0.00
2023-01-29T02:58:29.224Z,0.00
2023-01-29T03:00:57.642Z,0.00
2023-01-29T03:03:25.878Z,-0.10
2023-01-29T03:06:06.778Z,0.00
2023-01-29T03:08:43.190Z,-0.10
2023-01-29T03:11:14.226Z,-0.10
2023-01-29T03:13:59.874Z,-0.10
2023-01-29T03:16:56.839Z,-0.10
2023-01-29T03:19:34.389Z,-0.10
2023-01-29T03:22:04.497Z,-0.10
2023-01-29T03:24:50.380Z,0.00
2023-01-29T03:27:36.662Z,-0.10
2023-01-29T03:30:22.487Z,-0.10
2023-01-29T03:33:06.129Z,-0.10
2023-01-29T03:35:37.367Z,-0.10
2023-01-29T03:38:06.493Z,-0.10
2023-01-29T03:40:35.492Z,-0.10
2023-01-29T03:43:20.342Z,-0.10
2023-01-29T03:45:56.159Z,-0.10
2023-01-29T03:48:45.826Z,-0.10
2023-01-29T03:51:13.996Z,-0.10
2023-01-29T03:54:04.411Z,-0.10
2023-01-29T03:56:50.394Z,-0.10
2023-01-29T03:59:20.177Z,-0.10
2023-01-29T04:02:14.575Z,-0.10
2023-01-29T04:04:42.130Z,-0.10
2023-01-29T04:07:11.109Z,-0.10
2023-01-29T04:09:40.554Z,-0.10
2023-01-29T04:12:09.139Z,-0.10
2023-01-29T04:14:38.502Z,-0.10
2023-01-29T04:17:10.030Z,-0.10
2023-01-29T04:19:47.777Z,-0.10
2023-01-29T04:22:22.518Z,-0.10
2023-01-29T04:24:53.411Z,-0.10
2023-01-29T04:27:22.426Z,-0.10
2023-01-29T04:29:53.471Z,-0.10
2023-01-29T04:32:27.097Z,-0.10
2023-01-29T04:35:08.799Z,-0.10
2023-01-29T04:37:37.447Z,-0.20
2023-01-29T04:40:12.050Z,-0.10
2023-01-29T04:42:49.416Z,-0.10
2023-01-29T04:45:25.536Z,-0.10
2023-01-29T04:48:01.751Z,-0.10
2023-01-29T04:50:29.396Z,-0.10
2023-01-29T04:53:15.370Z,-0.10
2023-01-29T04:55:47.119Z,-0.10
2023-01-29T04:58:27.944Z,-0.10
2023-01-29T05:00:55.156Z,-0.10
2023-01-29T05:03:23.190Z,-0.10
2023-01-29T05:05:50.182Z,-0.10
2023-01-29T05:08:17.911Z,-0.10
2023-01-29T05:10:45.742Z,-0.10
2023-01-29T05:13:13.371Z,-0.10
2023-01-29T05:15:41.571Z,-0.10
2023-01-29T05:18:08.958Z,-0.10
2023-01-29T05:20:36.632Z,-0.10
2023-01-29T05:23:03.906Z,-0.10
2023-01-29T05:25:31.678Z,-0.10
2023-01-29T05:28:11.786Z,-0.10
2023-01-29T05:30:38.882Z,-0.10
2023-01-29T05:33:11.679Z,-0.10
2023-01-29T05:35:38.652Z,-0.10
2023-01-29T05:38:05.624Z,-0.10
2023-01-29T05:40:33.457Z,-0.10
2023-01-29T05:43:00.441Z,-0.10
2023-01-29T05:45:27.497Z,-0.10
2023-01-29T05:47:57.990Z,-0.10
2023-01-29T05:50:25.285Z,-0.20
2023-01-29T05:52:59.132Z,-0.20
2023-01-29T05:55:26.291Z,-0.20
2023-01-29T05:57:53.397Z,-0.20
2023-01-29T06:00:20.568Z,-0.20
2023-01-29T06:02:47.668Z,-0.20
2023-01-29T06:05:14.675Z,-0.20
2023-01-29T06:07:45.086Z,-0.20
2023-01-29T06:10:16.216Z,-0.20
2023-01-29T06:12:43.479Z,-0.20
2023-01-29T06:15:11.043Z,-0.20
2023-01-29T06:17:38.003Z,-0.20
2023-01-29T06:20:05.255Z,-0.20
2023-01-29T06:22:32.745Z,-0.20
2023-01-29T06:24:59.743Z,-0.20
2023-01-29T06:27:28.911Z,-0.20
2023-01-29T06:29:55.932Z,-0.20
2023-01-29T06:32:23.027Z,-0.20
2023-01-29T06:34:50.015Z,-0.20
2023-01-29T06:37:17.017Z,-0.20
2023-01-29T06:39:44.303Z,-0.20
2023-01-29T06:42:11.348Z,-0.20
2023-01-29T06:44:38.327Z,-0.20
2023-01-29T06:47:05.315Z,-0.20
2023-01-29T06:49:32.309Z,-0.20
2023-01-29T06:51:59.385Z,-0.20
2023-01-29T06:54:26.386Z,-0.20
2023-01-29T06:56:53.407Z,-0.20
2023-01-29T06:59:20.381Z,-0.20
2023-01-29T07:01:47.448Z,-0.20
2023-01-29T07:04:14.474Z,-0.20
2023-01-29T07:06:41.582Z,-0.20
2023-01-29T07:09:08.593Z,-0.20
2023-01-29T07:11:37.806Z,-0.20
2023-01-29T07:14:04.921Z,-0.20
2023-01-29T07:16:31.988Z,-0.20
2023-01-29T07:18:59.030Z,-0.20
2023-01-29T07:21:26.056Z,-0.20
2023-01-29T07:23:53.027Z,-0.20
2023-01-29T07:26:20.063Z,-0.20
2023-01-29T07:28:47.029Z,-0.20
2023-01-29T07:31:14.897Z,-0.20
2023-01-29T07:33:45.235Z,-0.20
2023-01-29T07:36:12.334Z,-0.20
2023-01-29T07:38:39.326Z,-0.10
2023-01-29T07:41:06.359Z,-0.20
2023-01-29T07:43:33.405Z,-0.10
2023-01-29T07:46:03.781Z,-0.20
2023-01-29T07:48:30.856Z,-0.10
2023-01-29T07:50:58.825Z,-0.10
2023-01-29T07:53:25.845Z,-0.10
2023-01-29T07:55:52.800Z,-0.10
2023-01-29T07:58:19.762Z,-0.10
2023-01-29T08:00:46.771Z,-0.10
2023-01-29T08:03:15.950Z,0.00
2023-01-29T08:05:43.334Z,-0.10
2023-01-29T08:08:10.415Z,-0.10
2023-01-29T08:10:37.641Z,-0.10
2023-01-29T08:13:04.928Z,0.00
2023-01-29T08:15:32.059Z,0.00
2023-01-29T08:17:59.075Z,0.00
2023-01-29T08:20:26.096Z,0.00
2023-01-29T08:23:00.178Z,0.00
2023-01-29T08:25:27.854Z,0.00
2023-01-29T08:27:55.886Z,0.00
2023-01-29T08:30:22.928Z,0.00
2023-01-29T08:32:49.917Z,0.00
2023-01-29T08:35:17.143Z,0.00
2023-01-29T08:37:44.383Z,0.00
2023-01-29T08:40:13.261Z,0.00
2023-01-29T08:42:41.470Z,0.00
2023-01-29T08:45:08.793Z,0.00
2023-01-29T08:47:35.770Z,0.10
2023-01-29T08:50:03.144Z,0.00
2023-01-29T08:52:30.113Z,0.00
2023-01-29T08:54:57.126Z,0.00
2023-01-29T08:57:24.114Z,0.00
2023-01-29T08:59:51.113Z,0.00
2023-01-29T09:02:18.108Z,0.00
2023-01-29T09:04:45.117Z,0.00
2023-01-29T09:07:16.400Z,0.10
2023-01-29T09:09:43.438Z,0.10
2023-01-29T09:12:10.406Z,0.10
2023-01-29T09:14:39.598Z,0.10
2023-01-29T09:17:06.781Z,0.20
2023-01-29T09:19:33.810Z,0.10
2023-01-29T09:22:05.357Z,0.20
2023-01-29T09:24:35.098Z,0.10
2023-01-29T09:27:02.104Z,0.10
2023-01-29T09:29:29.067Z,0.10
2023-01-29T09:31:56.122Z,0.10
2023-01-29T09:34:23.218Z,0.10
2023-01-29T09:36:51.622Z,0.10
2023-01-29T09:39:18.625Z,0.10
2023-01-29T09:42:15.062Z,0.20
2023-01-29T09:45:03.512Z,0.20
2023-01-29T09:47:30.878Z,0.10
2023-01-29T09:49:59.357Z,0.10
2023-01-29T09:52:27.547Z,0.10
2023-01-29T09:54:59.931Z,0.20
2023-01-29T09:57:45.731Z,0.20
2023-01-29T10:00:16.753Z,0.20
2023-01-29T10:02:59.229Z,0.20
2023-01-29T10:05:35.462Z,0.20
2023-01-29T10:08:21.629Z,0.20
2023-01-29T10:10:55.057Z,0.20
2023-01-29T10:13:27.827Z,0.20
2023-01-29T10:16:01.796Z,0.20
2023-01-29T10:18:32.964Z,0.20
2023-01-29T10:21:06.588Z,0.20
2023-01-29T10:23:34.705Z,0.20
2023-01-29T10:26:04.641Z,0.10
2023-01-29T10:28:50.604Z,0.10
2023-01-29T10:31:19.016Z,0.10
2023-01-29T10:34:01.482Z,0.10
2023-01-29T10:36:42.713Z,0.10
2023-01-29T10:39:12.301Z,0.20
2023-01-29T10:42:14.846Z,0.20
2023-01-29T10:44:53.432Z,0.20
2023-01-29T10:47:29.307Z,0.30
2023-01-29T10:49:57.376Z,0.20
2023-01-29T10:52:50.668Z,0.20
2023-01-29T10:55:33.581Z,0.20
2023-01-29T10:58:02.752Z,0.20
2023-01-29T11:00:37.894Z,0.20
2023-01-29T11:03:26.924Z,0.30
2023-01-29T11:06:12.816Z,0.30
2023-01-29T11:08:42.619Z,0.30
2023-01-29T11:11:12.949Z,0.30
2023-01-29T11:13:48.914Z,0.30
2023-01-29T11:16:15.961Z,0.40
2023-01-29T11:19:09.249Z,0.30
2023-01-29T11:21:53.115Z,0.40
2023-01-29T11:24:20.185Z,0.40
2023-01-29T11:26:48.178Z,0.40
2023-01-29T11:29:34.388Z,0.40
2023-01-29T11:32:05.319Z,0.40
2023-01-29T11:34:32.372Z,0.40
2023-01-29T11:37:03.180Z,0.40
2023-01-29T11:39:30.763Z,0.40
2023-01-29T11:41:58.835Z,0.40
2023-01-29T11:44:31.964Z,0.40
2023-01-29T11:47:14.334Z,0.40
2023-01-29T11:49:45.390Z,0.40
2023-01-29T11:52:12.378Z,0.50
2023-01-29T11:54:51.585Z,0.50
2023-01-29T11:57:30.933Z,0.50
2023-01-29T11:59:59.422Z,0.50
2023-01-29T12:02:28.168Z,0.60
2023-01-29T12:04:55.620Z,0.60
2023-01-29T12:07:22.663Z,0.60
2023-01-29T12:09:54.157Z,0.60
2023-01-29T12:12:21.170Z,0.60
2023-01-29T12:14:48.137Z,0.60
2023-01-29T12:17:23.887Z,0.60
2023-01-29T12:19:55.248Z,0.60
2023-01-29T12:22:34.621Z,0.60
2023-01-29T12:25:13.875Z,0.60
2023-01-29T12:27:43.407Z,0.60
2023-01-29T12:30:10.401Z,0.60
2023-01-29T12:32:43.525Z,0.60
2023-01-29T12:35:12.681Z,0.60
2023-01-29T12:37:45.607Z,0.60
2023-01-29T12:40:13.784Z,0.60
2023-01-29T12:42:41.475Z,0.60
2023-01-29T12:45:10.757Z,0.60
2023-01-29T12:47:42.491Z,0.60
2023-01-29T12:50:21.598Z,0.60
2023-01-29T12:52:51.605Z,0.60
2023-01-29T12:55:18.596Z,0.60
2023-01-29T12:57:50.694Z,0.60
2023-01-29T13:00:22.485Z,0.50
2023-01-29T13:03:00.570Z,0.50
2023-01-29T13:05:47.841Z,0.50
2023-01-29T13:08:16.579Z,0.50
2023-01-29T13:10:44.663Z,0.60
2023-01-29T13:13:16.367Z,0.50
2023-01-29T13:15:44.168Z,0.60
2023-01-29T13:18:29.391Z,0.50
2023-01-29T13:20:56.392Z,0.60
2023-01-29T13:23:25.675Z,0.60
2023-01-29T13:25:52.697Z,0.60
2023-01-29T13:28:20.028Z,0.50
2023-01-29T13:30:47.103Z,0.50
2023-01-29T13:33:21.176Z,0.50
2023-01-29T13:35:48.598Z,0.60
2023-01-29T13:38:20.916Z,0.60
2023-01-29T13:40:50.962Z,0.60
2023-01-29T13:43:22.160Z,0.60
2023-01-29T13:45:49.127Z,0.50
2023-01-29T13:48:28.879Z,0.60
2023-01-29T13:50:56.206Z,0.60
2023-01-29T13:53:24.404Z,0.50
2023-01-29T13:55:51.422Z,0.50
2023-01-29T13:58:38.348Z,0.50
2023-01-29T14:01:05.396Z,0.50
2023-01-29T14:04:03.252Z,0.50
2023-01-29T14:06:40.381Z,0.50
2023-01-29T14:09:26.211Z,0.50
2023-01-29T14:11:53.207Z,0.50
2023-01-29T14:14:43.257Z,0.50
2023-01-29T14:17:10.227Z,0.50
2023-01-29T14:19:37.389Z,0.50
2023-01-29T14:22:04.783Z,0.50
2023-01-29T14:24:31.888Z,0.50
2023-01-29T14:26:58.898Z,0.50
2023-01-29T14:29:34.402Z,0.50
2023-01-29T14:32:14.327Z,0.50
2023-01-29T14:34:48.003Z,0.50
2023-01-29T14:37:14.971Z,0.50
2023-01-29T14:39:41.942Z,0.50
2023-01-29T14:42:17.070Z,0.40
2023-01-29T14:44:44.025Z,0.40
2023-01-29T14:47:29.898Z,0.40
2023-01-29T14:49:57.510Z,0.40
2023-01-29T14:52:40.519Z,0.40
2023-01-29T14:55:27.843Z,0.40
2023-01-29T14:57:54.808Z,0.30
2023-01-29T15:00:26.869Z,0.30
2023-01-29T15:03:01.734Z,0.30
2023-01-29T15:05:35.861Z,0.30
2023-01-29T15:08:20.067Z,0.30
2023-01-29T15:11:15.545Z,0.30
2023-01-29T15:13:44.587Z,0.30
2023-01-29T15:16:14.825Z,0.30
2023-01-29T15:18:42.235Z,0.30
2023-01-29T15:21:12.478Z,0.30
2023-01-29T15:23:40.736Z,0.30
2023-01-29T15:26:11.452Z,0.30
2023-01-29T15:28:38.660Z,0.30
2023-01-29T15:31:07.662Z,0.20
2023-01-29T15:33:34.786Z,0.20
2023-01-29T15:36:07.317Z,0.20
2023-01-29T15:38:35.045Z,0.20
2023-01-29T15:41:02.941Z,0.20
2023-01-29T15:43:36.648Z,0.20
2023-01-29T15:46:07.530Z,0.20
2023-01-29T15:48:35.560Z,0.10
2023-01-29T15:51:04.952Z,0.10
2023-01-29T15:53:34.917Z,0.20
2023-01-29T15:56:01.958Z,0.10
2023-01-29T15:58:29.607Z,0.10
2023-01-29T16:00:56.698Z,0.10
2023-01-29T16:03:24.021Z,0.10
2023-01-29T16:05:51.710Z,0.10
2023-01-29T16:08:18.745Z,0.10
2023-01-29T16:10:52.613Z,0.10
2023-01-29T16:13:23.321Z,0.10
2023-01-29T16:15:54.302Z,0.10
2023-01-29T16:18:22.174Z,0.00
2023-01-29T16:20:52.863Z,0.00
2023-01-29T16:23:21.237Z,0.10
2023-01-29T16:25:48.402Z,0.00
2023-01-29T16:28:15.380Z,0.00
2023-01-29T16:30:42.544Z,0.00
2023-01-29T16:33:12.809Z,0.00
2023-01-29T16:35:40.363Z,0.00
2023-01-29T16:38:24.219Z,0.00
2023-01-29T16:41:04.250Z,-0.10
2023-01-29T16:43:42.205Z,0.00
2023-01-29T16:46:17.571Z,0.00
2023-01-29T16:48:44.597Z,-0.10
2023-01-29T16:51:13.588Z,-0.10
2023-01-29T16:53:40.564Z,-0.10
2023-01-29T16:56:07.816Z,-0.10
2023-01-29T16:58:34.892Z,-0.10
2023-01-29T17:01:02.637Z,-0.10
2023-01-29T17:03:30.465Z,-0.10
2023-01-29T17:05:57.446Z,-0.10
2023-01-29T17:08:31.712Z,-0.10
2023-01-29T17:10:58.858Z,-0.10
2023-01-29T17:13:35.955Z,-0.10
2023-01-29T17:16:03.766Z,-0.10
2023-01-29T17:18:30.920Z,-0.10
2023-01-29T17:20:57.967Z,-0.10
2023-01-29T17:23:24.970Z,-0.20
2023-01-29T17:25:52.051Z,-0.20
2023-01-29T17:28:19.077Z,-0.10
2023-01-29T17:30:56.619Z,-0.20
2023-01-29T17:33:27.466Z,-0.20
2023-01-29T17:35:54.594Z,-0.20
2023-01-29T17:38:26.668Z,-0.20
2023-01-29T17:41:00.440Z,-0.20
2023-01-29T17:43:27.488Z,-0.20
2023-01-29T17:45:54.603Z,-0.20
2023-01-29T17:48:22.705Z,-0.20
2023-01-29T17:50:51.043Z,-0.20
2023-01-29T17:53:18.012Z,-0.20
2023-01-29T17:55:44.996Z,-0.20
2023-01-29T17:58:18.822Z,-0.20
2023-01-29T18:00:46.125Z,-0.20
2023-01-29T18:03:13.315Z,-0.30
2023-01-29T18:05:42.453Z,-0.20
2023-01-29T18:08:30.539Z,-0.20
2023-01-29T18:10:57.502Z,-0.30
2023-01-29T18:13:24.472Z,-0.30
2023-01-29T18:15:51.505Z,-0.20
2023-01-29T18:18:20.433Z,-0.30
2023-01-29T18:20:47.482Z,-0.30
2023-01-29T18:23:14.487Z,-0.30
2023-01-29T18:25:41.551Z,-0.30
2023-01-29T18:28:13.203Z,-0.30
2023-01-29T18:30:41.965Z,-0.30
2023-01-29T18:33:09.023Z,-0.30
2023-01-29T18:35:35.987Z,-0.30
2023-01-29T18:38:04.133Z,-0.30
2023-01-29T18:40:31.468Z,-0.40
2023-01-29T18:43:01.634Z,-0.30
2023-01-29T18:45:28.809Z,-0.30
2023-01-29T18:47:56.089Z,-0.40
2023-01-29T18:50:24.863Z,-0.40
2023-01-29T18:52:52.337Z,-0.40
2023-01-29T18:55:19.440Z,-0.40
2023-01-29T18:58:29.008Z,-0.40
2023-01-29T19:00:33.508Z,-0.40
2023-01-29T19:03:00.748Z,-0.40
2023-01-29T19:05:27.742Z,-0.40
2023-01-29T19:07:57.102Z,-0.40
2023-01-29T19:10:24.077Z,-0.50
2023-01-29T19:12:51.072Z,-0.40
2023-01-29T19:15:21.799Z,-0.50
2023-01-29T19:17:51.901Z,-0.50
2023-01-29T19:20:19.068Z,-0.50
2023-01-29T19:22:46.054Z,-0.50
2023-01-29T19:25:13.145Z,-0.50
2023-01-29T19:27:41.425Z,-0.60
2023-01-29T19:30:08.870Z,-0.60
2023-01-29T19:32:35.884Z,-0.60
2023-01-29T19:35:02.892Z,-0.60
2023-01-29T19:37:32.516Z,-0.70
2023-01-29T19:39:59.539Z,-0.70
2023-01-29T19:42:27.154Z,-0.70
2023-01-29T19:44:54.121Z,-0.70
2023-01-29T19:47:21.204Z,-0.80
2023-01-29T19:49:48.312Z,-0.70
2023-01-29T19:52:51.251Z,-0.80
2023-01-29T19:55:19.617Z,-0.80
2023-01-29T19:57:46.795Z,-0.80
2023-01-29T20:00:17.244Z,-0.90
2023-01-29T20:02:44.288Z,-0.90
2023-01-29T20:05:12.850Z,-0.90
2023-01-29T20:07:40.067Z,-1.00
2023-01-29T20:10:08.840Z,-1.00
2023-01-29T20:12:35.842Z,-1.00
2023-01-29T20:15:02.876Z,-1.00
2023-01-29T20:17:29.858Z,-1.00
2023-01-29T20:19:59.107Z,-1.00
2023-01-29T20:22:26.164Z,-1.00
2023-01-29T20:24:53.700Z,-1.10
2023-01-29T20:27:23.148Z,-1.10
2023-01-29T20:29:55.070Z,-1.10
2023-01-29T20:32:23.343Z,-1.10
2023-01-29T20:34:52.167Z,-1.20
2023-01-29T20:37:19.542Z,-1.20
2023-01-29T20:39:46.914Z,-1.20
2023-01-29T20:42:14.007Z,-1.20
2023-01-29T20:44:41.064Z,-1.30
2023-01-29T20:47:08.515Z,-1.30
2023-01-29T20:49:35.588Z,-1.30
2023-01-29T20:52:02.674Z,-1.30
2023-01-29T20:54:29.995Z,-1.30
2023-01-29T20:56:57.371Z,-1.40
2023-01-29T20:59:24.352Z,-1.40
2023-01-29T21:01:51.367Z,-1.40
2023-01-29T21:04:18.469Z,-1.40
2023-01-29T21:06:45.432Z,-1.40
2023-01-29T21:09:12.409Z,-1.50
2023-01-29T21:11:39.450Z,-1.40
2023-01-29T21:14:07.065Z,-1.50
2023-01-29T21:16:34.200Z,-1.50
2023-01-29T21:19:01.218Z,-1.50
2023-01-29T21:21:28.263Z,-1.50
2023-01-29T21:23:55.296Z,-1.50
2023-01-29T21:26:23.487Z,-1.50
2023-01-29T21:28:50.547Z,-1.50
2023-01-29T21:31:17.696Z,-1.50
2023-01-29T21:33:44.785Z,-1.50
2023-01-29T21:36:11.794Z,-1.60
2023-01-29T21:38:39.060Z,-1.60
2023-01-29T21:41:07.070Z,-1.60
2023-01-29T21:43:34.156Z,-1.60
2023-01-29T21:46:03.787Z,-1.60
2023-01-29T21:48:30.890Z,-1.60
2023-01-29T21:50:57.928Z,-1.60
2023-01-29T21:53:24.932Z,-1.70
2023-01-29T21:55:51.928Z,-1.60
2023-01-29T21:58:20.496Z,-1.70
2023-01-29T22:00:48.726Z,-1.70
2023-01-29T22:03:16.003Z,-1.70
2023-01-29T22:05:43.004Z,-1.70
2023-01-29T22:08:10.039Z,-1.70
2023-01-29T22:10:37.579Z,-1.70
2023-01-29T22:13:04.811Z,-1.80
2023-01-29T22:15:31.849Z,-1.80
2023-01-29T22:17:58.822Z,-1.80
2023-01-29T22:20:30.076Z,-1.80
2023-01-29T22:22:58.344Z,-1.80
2023-01-29T22:25:25.357Z,-1.80
2023-01-29T22:27:52.559Z,-1.80
2023-01-29T22:30:19.783Z,-1.80
2023-01-29T22:32:46.852Z,-1.80
2023-01-29T22:35:13.927Z,-1.80
2023-01-29T22:37:40.902Z,-1.80
2023-01-29T22:40:08.457Z,-1.90
2023-01-29T22:42:35.415Z,-1.90
2023-01-29T22:45:02.501Z,-1.80
2023-01-29T22:47:29.580Z,-1.90
2023-01-29T22:49:56.605Z,-1.90
2023-01-29T22:52:23.681Z,-1.90
2023-01-29T22:54:51.487Z,-1.90
2023-01-29T22:57:19.622Z,-1.90
2023-01-29T22:59:46.883Z,-1.90
2023-01-29T23:02:13.864Z,-2.00
2023-01-29T23:04:42.364Z,-2.00
2023-01-29T23:07:09.402Z,-2.00
2023-01-29T23:09:36.396Z,-2.00
2023-01-29T23:12:03.476Z,-2.00
2023-01-29T23:14:30.497Z,-2.00
2023-01-29T23:16:57.561Z,-2.00
2023-01-29T23:19:24.643Z,-2.10
2023-01-29T23:21:51.652Z,-2.10
2023-01-29T23:24:18.674Z,-2.10
2023-01-29T23:27:04.477Z,-2.10
2023-01-29T23:29:31.455Z,-2.10
2023-01-29T23:31:58.458Z,-2.10
2023-01-29T23:34:25.526Z,-2.10
2023-01-29T23:36:52.534Z,-2.10
2023-01-29T23:39:20.332Z,-2.10
2023-01-29T23:41:47.389Z,-2.10
2023-01-29T23:44:14.390Z,-2.10
2023-01-29T23:46:41.426Z,-2.20
2023-01-29T23:49:08.612Z,-2.20
2023-01-29T23:51:35.623Z,-2.10
2023-01-29T23:54:03.309Z,-2.20
2023-01-29T23:56:30.419Z,-2.10
2023-01-29T23:58:57.483Z,-2.20
